Time;durP1;ratioP1;P1;durP2;ratioP2;P2;SDS_P1;SDS_P2;PMS_P1;PMS_P2;Temp;Humidity;BMP_temperature;BMP_pressure;BME280_temperature;BME280_humidity;BME280_pressure;Samples;Min_cycle;Max_cycle;Signal;HPM_P1;HPM_P2
2022/09/04 00:02:11;;;;;;;15.95;11.63;;;;;;;19.61;57.61;101225.69;6161509;23;20005;-96
2022/09/04 00:04:55;;;;;;;11.02;10.02;;;;;;;19.58;57.93;101233.06;6160729;23;20009;-95
2022/09/04 00:07:39;;;;;;;11.52;10.13;;;;;;;19.60;58.10;101237.41;6160697;23;20012;-96
2022/09/04 00:10:15;;;;;;;12.50;10.02;;;;;;;19.63;57.01;101238.97;6160943;23;20067;-94
2022/09/04 00:12:49;;;;;;;13.73;9.80;;;;;;;19.60;56.81;101223.97;6160929;23;20001;-94
2022/09/04 00:15:30;;;;;;;12.70;10.55;;;;;;;19.56;57.33;101226.97;6161651;23;20060;-95
2022/09/04 00:17:58;;;;;;;12.43;11.25;;;;;;;19.29;59.95;101252.06;6160884;23;20031;-95
2022/09/04 00:20:32;;;;;;;13.32;10.60;;;;;;;19.27;58.81;101251.34;6186633;23;20079;-96
2022/09/04 00:23:04;;;;;;;15.88;11.27;;;;;;;19.15;59.20;101230.75;6160460;23;20001;-96
2022/09/04 00:25:39;;;;;;;11.77;10.57;;;;;;;19.31;58.91;101246.63;6160775;23;20009;-95
2022/09/04 00:28:16;;;;;;;12.05;10.13;;;;;;;19.37;58.10;101244.34;6160705;23;20048;-95
2022/09/04 00:30:51;;;;;;;11.25;9.90;;;;;;;19.36;57.50;101239.13;6160532;23;20084;-96
2022/09/04 00:33:32;;;;;;;11.95;10.45;;;;;;;19.46;57.34;101253.59;6160463;23;20004;-96
2022/09/04 00:36:02;;;;;;;16.80;10.70;;;;;;;19.27;57.83;101237.94;6160829;23;20040;-96
2022/09/04 00:38:49;;;;;;;13.05;10.40;;;;;;;19.18;56.83;101230.53;6160596;23;20009;-95
2022/09/04 00:41:29;;;;;;;11.80;10.57;;;;;;;19.33;57.71;101258.09;6160438;23;20012;-96
2022/09/04 00:44:32;;;;;;;16.85;10.48;;;;;;;19.41;56.88;101260.25;6160410;23;20452;-95
2022/09/04 00:47:05;;;;;;;14.70;10.57;;;;;;;19.15;56.75;101237.94;6160447;23;20001;-96
2022/09/04 00:50:02;;;;;;;15.88;10.60;;;;;;;19.27;57.19;101266.56;6160560;23;20012;-95
2022/09/04 00:52:36;;;;;;;14.57;9.77;;;;;;;19.06;57.24;101240.28;6160295;23;20497;-96
2022/09/04 00:55:23;;;;;;;16.67;10.75;;;;;;;19.11;56.89;101254.22;6160082;23;20013;-96
2022/09/04 00:58:17;;;;;;;11.75;10.55;;;;;;;19.10;57.54;101249.81;6160059;23;20001;-94
2022/09/04 01:00:46;;;;;;;12.00;10.80;;;;;;;18.98;58.80;101261.41;6160111;23;20377;-95
2022/09/04 01:03:29;;;;;;;12.63;11.35;;;;;;;18.94;58.21;101267.09;6159895;23;20004;-95
2022/09/04 01:06:19;;;;;;;12.88;11.55;;;;;;;18.95;58.06;101271.47;6160135;23;20428;-94
2022/09/04 01:09:23;;;;;;;14.55;12.38;;;;;;;19.01;57.96;101276.41;6159891;23;20009;-96
2022/09/04 01:12:12;;;;;;;13.15;10.93;;;;;;;18.94;58.37;101280.47;6159645;23;20015;-94
2022/09/04 01:15:03;;;;;;;11.90;10.70;;;;;;;18.83;58.08;101260.63;6148674;23;20009;-96
2022/09/04 01:17:47;;;;;;;12.95;10.30;;;;;;;18.93;57.71;101287.66;6160220;23;20001;-95
2022/09/04 01:20:20;;;;;;;11.82;10.63;;;;;;;18.82;59.29;101285.69;6159126;23;20005;-96
2022/09/04 01:23:05;;;;;;;12.65;11.27;;;;;;;18.59;59.95;101272.97;6159082;23;20067;-95
2022/09/04 01:26:13;;;;;;;13.43;10.68;;;;;;;18.37;59.09;101273.50;6159828;23;20088;-95
2022/09/04 01:28:43;;;;;;;12.95;10.85;;;;;;;18.28;60.31;101291.06;6158966;23;20426;-96
2022/09/04 01:31:47;;;;;;;13.48;11.80;;;;;;;18.20;61.24;101301.41;6158662;23;20009;-95
2022/09/04 01:34:32;;;;;;;13.02;11.63;;;;;;;18.06;63.52;101296.94;6159527;23;20382;-95
2022/09/04 01:37:41;;;;;;;11.57;10.38;;;;;;;18.20;60.49;101298.72;6159623;23;20021;-96
2022/09/04 01:40:09;;;;;;;13.05;10.73;;;;;;;18.25;61.34;101306.47;6159257;23;20044;-96
2022/09/04 01:43:03;;;;;;;12.00;10.13;;;;;;;18.28;59.94;101315.16;6158512;23;20569;-95
2022/09/04 01:45:51;;;;;;;15.18;12.18;;;;;;;18.25;61.29;101317.16;6158343;23;20112;-96
2022/09/04 01:48:26;;;;;;;16.80;11.18;;;;;;;18.26;61.46;101309.03;6158556;23;20001;-95
2022/09/04 01:50:57;;;;;;;11.98;10.43;;;;;;;18.36;60.24;101310.13;6159123;23;20028;-95
2022/09/04 01:53:28;;;;;;;12.93;11.38;;;;;;;18.18;61.95;101284.56;6159228;23;20009;-96
2022/09/04 01:56:11;;;;;;;13.73;11.68;;;;;;;18.29;62.28;101308.84;6159388;23;20004;-96
2022/09/04 01:58:45;;;;;;;15.20;11.77;;;;;;;18.14;62.95;101304.47;6186738;23;20004;-95
2022/09/04 02:01:21;;;;;;;13.10;11.35;;;;;;;18.03;63.13;101323.03;6159848;23;20084;-95
2022/09/04 02:04:06;;;;;;;12.32;10.93;;;;;;;17.87;62.00;101301.75;6186765;23;20001;-95
2022/09/04 02:06:46;;;;;;;14.07;12.45;;;;;;;17.66;64.67;101314.59;6159717;23;20345;-96
2022/09/04 02:09:20;;;;;;;15.50;11.73;;;;;;;17.51;64.81;101320.91;6159931;23;20448;-96
2022/09/04 02:12:02;;;;;;;14.48;11.48;;;;;;;17.54;63.43;101312.72;6160422;23;20337;-96
2022/09/04 02:14:39;;;;;;;13.43;11.60;;;;;;;17.60;63.57;101305.16;6161432;23;20433;-96
2022/09/04 02:17:37;;;;;;;13.77;11.00;;;;;;;17.80;61.38;101311.97;6161017;23;20477;-96
2022/09/04 02:20:24;;;;;;;13.82;11.52;;;;;;;17.98;62.06;101338.50;6160605;23;20452;-95
2022/09/04 02:23:14;;;;;;;14.77;11.10;;;;;;;17.93;63.54;101338.81;6160761;23;20087;-94
2022/09/04 02:25:58;;;;;;;15.13;12.63;;;;;;;17.77;64.08;101344.25;6160603;23;20004;-95
2022/09/04 02:28:28;;;;;;;15.75;12.23;;;;;;;17.54;66.76;101342.97;6160790;23;20261;-95
2022/09/04 02:31:04;;;;;;;12.38;11.05;;;;;;;17.60;64.29;101336.38;6160393;23;20005;-96
2022/09/04 02:34:07;;;;;;;15.40;11.63;;;;;;;17.85;63.19;101343.75;6160534;23;20019;-95
2022/09/04 02:36:51;;;;;;;13.60;11.45;;;;;;;17.82;64.52;101342.16;6160845;23;20005;-96
2022/09/04 02:39:41;;;;;;;14.25;12.82;;;;;;;17.56;66.04;101346.41;6160694;23;20001;-95
2022/09/04 02:42:13;;;;;;;14.13;12.50;;;;;;;17.46;65.36;101349.75;6159711;23;20446;-96
2022/09/04 02:45:03;;;;;;;15.90;11.20;;;;;;;17.50;64.46;101335.25;6160263;23;20005;-96
2022/09/04 02:47:44;;;;;;;14.30;11.63;;;;;;;17.60;63.97;101331.03;6139275;23;20497;-96
2022/09/04 02:51:02;;;;;;;13.73;11.38;;;;;;;17.68;63.80;101355.50;6159689;23;20005;-95
2022/09/04 02:53:37;;;;;;;14.38;11.77;;;;;;;17.54;67.02;101350.13;6159697;23;20020;-95
2022/09/04 02:56:19;;;;;;;13.30;11.13;;;;;;;17.46;65.69;101357.75;6159501;23;20447;-96
2022/09/04 02:59:22;;;;;;;13.63;11.77;;;;;;;17.32;65.08;101367.47;6159785;23;20083;-96
2022/09/04 03:01:58;;;;;;;12.63;11.05;;;;;;;17.35;66.11;101369.09;6185627;23;20452;-95
2022/09/04 03:04:38;;;;;;;14.73;10.77;;;;;;;17.45;65.64;101370.28;6159109;23;20433;-95
2022/09/04 03:07:42;;;;;;;14.82;11.50;;;;;;;17.48;65.36;101358.50;6159201;23;20012;-95
2022/09/04 03:10:15;;;;;;;14.02;11.63;;;;;;;17.33;67.97;101354.97;6097890;23;20425;-95
2022/09/04 03:13:04;;;;;;;13.35;11.95;;;;;;;17.31;67.95;101372.91;6159865;23;20421;-95
2022/09/04 03:15:45;;;;;;;14.85;10.93;;;;;;;17.23;66.91;101376.03;6158817;23;20009;-95
2022/09/04 03:18:28;;;;;;;18.15;11.63;;;;;;;17.18;67.61;101361.22;6159642;23;20092;-95
2022/09/04 03:21:00;;;;;;;12.38;11.07;;;;;;;17.30;67.00;101355.16;6159318;23;20075;-96
2022/09/04 03:23:39;;;;;;;14.68;11.02;;;;;;;17.42;66.61;101358.91;6159418;23;20016;-96
2022/09/04 03:26:19;;;;;;;13.10;10.57;;;;;;;17.49;66.44;101370.94;6185400;23;20005;-96
2022/09/04 03:28:50;;;;;;;14.77;11.45;;;;;;;17.32;68.00;101378.16;6157653;23;20012;-96
2022/09/04 03:31:21;;;;;;;13.13;10.67;;;;;;;17.27;66.53;101377.56;6158829;23;20000;-95
2022/09/04 03:34:28;;;;;;;11.00;9.80;;;;;;;17.37;65.08;101372.53;6158606;23;20485;-95
2022/09/04 03:37:05;;;;;;;15.75;11.35;;;;;;;17.23;67.64;101376.03;6070040;23;20006;-94
2022/09/04 03:40:00;;;;;;;14.75;10.52;;;;;;;17.24;67.27;101377.75;6150712;23;20426;-94
2022/09/04 03:43:00;;;;;;;13.55;10.77;;;;;;;17.23;68.39;101375.19;6133945;23;20016;-95
2022/09/04 03:45:40;;;;;;;12.77;10.35;;;;;;;17.23;68.33;101378.69;6159436;23;20009;-95
2022/09/04 03:48:27;;;;;;;13.25;11.77;;;;;;;17.24;69.46;101380.41;6159559;23;20009;-94
2022/09/04 03:51:03;;;;;;;13.50;10.82;;;;;;;17.22;67.81;101368.13;6158494;23;20009;-95
2022/09/04 03:53:52;;;;;;;12.23;10.68;;;;;;;17.37;67.70;101387.72;6158731;23;20013;-94
2022/09/04 03:56:26;;;;;;;14.32;10.98;;;;;;;17.32;68.70;101390.66;6134067;23;20013;-95
2022/09/04 03:59:16;;;;;;;11.27;10.07;;;;;;;17.26;67.77;101381.22;6159517;23;20039;-95
2022/09/04 04:02:00;;;;;;;13.65;12.13;;;;;;;17.29;70.21;101390.84;6158481;23;20016;-96
2022/09/04 04:04:45;;;;;;;14.70;10.65;;;;;;;17.25;68.84;101392.84;6159540;23;20498;-95
2022/09/04 04:07:27;;;;;;;16.17;10.18;;;;;;;17.33;67.97;101390.56;6159551;23;20004;-95
2022/09/04 04:10:14;;;;;;;12.90;10.27;;;;;;;17.36;66.91;101388.69;6183550;23;20451;-95
2022/09/04 04:13:01;;;;;;;15.57;11.20;;;;;;;17.41;67.93;101398.13;6158737;23;20001;-96
2022/09/04 04:15:51;;;;;;;13.73;11.05;;;;;;;17.14;69.27;101392.59;6133561;23;20013;-95
2022/09/04 04:18:33;;;;;;;15.95;11.07;;;;;;;17.01;71.58;101408.47;6157922;23;20389;-96
2022/09/04 04:21:38;;;;;;;14.82;10.50;;;;;;;17.06;68.30;101408.22;6182930;23;20052;-94
2022/09/04 04:24:07;;;;;;;18.10;12.40;;;;;;;17.05;71.92;101412.69;6158089;23;20140;-95
2022/09/04 04:26:51;;;;;;;17.40;11.68;;;;;;;16.90;72.57;101412.75;6158179;23;20019;-95
2022/09/04 04:29:41;;;;;;;14.18;10.48;;;;;;;16.93;70.26;101412.56;6158193;23;20433;-95
2022/09/04 04:32:46;;;;;;;16.58;12.18;;;;;;;16.99;71.03;101422.91;6185347;23;20000;-96
2022/09/04 04:35:33;;;;;;;17.08;12.48;;;;;;;16.84;73.08;101427.31;6158210;23;20011;-95
2022/09/04 04:38:26;;;;;;;13.13;9.80;;;;;;;16.83;69.69;101426.47;6157575;23;20070;-96
2022/09/04 04:41:04;;;;;;;14.90;10.43;;;;;;;16.79;69.81;101427.56;6156888;23;20437;-95
2022/09/04 04:44:13;;;;;;;16.95;10.75;;;;;;;16.84;69.65;101429.97;6159325;23;20009;-96
2022/09/04 04:47:21;;;;;;;14.43;10.27;;;;;;;16.92;69.32;101433.06;6161118;23;20009;-96
2022/09/04 04:50:05;;;;;;;12.70;10.05;;;;;;;16.90;70.92;101432.28;6160908;23;20000;-96
2022/09/04 04:52:39;;;;;;;16.02;11.23;;;;;;;16.82;70.34;101431.88;6141424;23;20021;-96
2022/09/04 04:55:11;;;;;;;14.07;10.38;;;;;;;16.68;71.02;101421.06;6130551;23;20033;-95
2022/09/04 04:58:04;;;;;;;12.20;9.82;;;;;;;16.85;69.31;101431.69;6131514;23;20005;-95
2022/09/04 05:00:52;;;;;;;13.73;10.63;;;;;;;16.91;71.77;101438.50;6132364;23;20429;-96
2022/09/04 05:03:31;;;;;;;13.77;10.18;;;;;;;16.97;69.79;101433.69;6131827;23;20072;-96
2022/09/04 05:06:08;;;;;;;17.35;11.70;;;;;;;16.90;71.55;101418.09;6131044;23;20060;-95
2022/09/04 05:09:09;;;;;;;16.73;11.60;;;;;;;17.07;71.27;101444.69;6130876;23;20096;-95
2022/09/04 05:11:58;;;;;;;14.38;10.43;;;;;;;17.15;69.52;101452.25;6129914;23;20005;-94
2022/09/04 05:14:58;;;;;;;18.00;10.75;;;;;;;17.14;69.93;101451.38;6156896;23;20072;-94
2022/09/04 05:17:55;;;;;;;17.85;11.98;;;;;;;16.82;71.67;101445.22;6106267;23;20140;-96
2022/09/04 05:21:00;;;;;;;15.48;11.23;;;;;;;16.90;71.11;101459.00;6130498;23;20006;-95
2022/09/04 05:23:57;;;;;;;18.65;12.27;;;;;;;16.80;71.34;101442.63;6130113;23;20013;-95
2022/09/04 05:26:37;;;;;;;18.58;10.57;;;;;;;16.79;71.14;101472.97;6129654;23;20001;-96
2022/09/04 05:29:18;;;;;;;14.68;9.32;;;;;;;16.80;69.93;101452.47;6129716;23;20009;-95
2022/09/04 05:31:55;;;;;;;16.98;11.45;;;;;;;16.85;71.78;101470.91;6129061;23;20377;-94
2022/09/04 05:34:56;;;;;;;16.02;11.50;;;;;;;16.92;71.98;101482.94;6129180;23;20100;-95
2022/09/04 05:37:36;;;;;;;20.95;11.60;;;;;;;16.87;74.10;101485.88;6154969;23;20068;-95
2022/09/04 05:40:35;;;;;;;14.95;11.25;;;;;;;16.91;72.81;101489.25;6128615;23;20008;-95
2022/09/04 05:43:39;;;;;;;13.88;10.30;;;;;;;16.87;70.80;101467.19;6127991;23;20001;-94
2022/09/04 05:46:26;;;;;;;16.05;11.20;;;;;;;17.11;71.50;101485.44;6127821;23;20425;-95
2022/09/04 05:49:16;;;;;;;14.48;10.98;;;;;;;17.23;71.66;101503.44;6128315;23;20009;-95
2022/09/04 05:52:09;;;;;;;16.98;11.05;;;;;;;17.29;71.55;101503.09;6161645;23;20036;-94
2022/09/04 05:54:54;;;;;;;18.15;12.38;;;;;;;17.20;73.14;101511.63;6156282;23;20031;-94
2022/09/04 05:57:47;;;;;;;15.38;10.98;;;;;;;17.13;73.48;101518.28;6156316;23;20036;-94
2022/09/04 06:00:18;;;;;;;15.57;11.10;;;;;;;17.11;73.78;101505.00;6156268;23;20019;-94
2022/09/04 06:03:13;;;;;;;15.20;10.23;;;;;;;17.37;71.61;101508.84;6131896;23;20013;-94
2022/09/04 06:05:59;;;;;;;16.88;12.32;;;;;;;17.48;73.06;101524.25;6157320;23;20088;-94
2022/09/04 06:08:43;;;;;;;13.75;9.93;;;;;;;17.45;72.22;101513.75;6157893;23;20148;-94
2022/09/04 06:11:08;;;;;;;13.25;10.32;;;;;;;17.58;72.91;101523.66;6157871;23;20005;-94
2022/09/04 06:13:46;;;;;;;16.30;11.57;;;;;;;17.66;71.94;101525.00;6158049;23;20004;-94
2022/09/04 06:16:23;;;;;;;14.88;10.55;;;;;;;17.77;71.88;101530.63;6157087;23;20720;-94
2022/09/04 06:19:19;;;;;;;16.67;12.02;;;;;;;17.87;71.79;101530.94;6158514;23;20005;-94
2022/09/04 06:22:39;;;;;;;16.48;11.82;;;;;;;17.99;71.48;101540.88;6157484;23;20009;-95
2022/09/04 06:25:30;;;;;;;16.73;11.85;;;;;;;18.00;72.46;101532.78;6039158;23;20489;-94
2022/09/04 06:27:55;;;;;;;15.70;11.10;;;;;;;18.03;73.69;101526.38;6177597;23;20436;-94
2022/09/04 06:30:53;;;;;;;16.00;11.40;;;;;;;18.05;72.54;101528.03;6155962;23;20001;-95
2022/09/04 06:33:29;;;;;;;14.60;10.85;;;;;;;18.12;72.02;101533.00;6181090;23;20236;-93
2022/09/04 06:36:22;;;;;;;15.07;10.77;;;;;;;18.27;73.20;101540.06;6180371;23;20039;-93
2022/09/04 06:38:53;;;;;;;;;;;;;;;18.48;70.96;101537.91;6115264;23;20012;-93
2022/09/04 06:41:46;;;;;;;16.60;12.48;;;;;;;18.25;72.94;101531.28;6183201;23;20336;-93
2022/09/04 06:44:19;;;;;;;;;;;;;;;18.54;70.07;101549.09;6186055;23;20429;-94
2022/09/04 06:47:03;;;;;;;12.82;10.07;;;;;;;18.57;70.60;101543.56;6158788;23;19904;-95
2022/09/04 06:49:58;;;;;;;15.20;11.43;;;;;;;18.64;72.14;101535.97;6158536;23;20543;-94
2022/09/04 06:52:44;;;;;;;13.68;11.00;;;;;;;18.68;71.02;101531.28;6157564;23;20020;-93
2022/09/04 06:55:27;;;;;;;12.88;10.73;;;;;;;18.79;71.26;101527.03;6158606;23;20001;-93
2022/09/04 06:58:15;;;;;;;17.35;11.73;;;;;;;19.03;71.48;101548.72;6158327;23;20378;-93
2022/09/04 07:00:52;;;;;;;14.63;11.35;;;;;;;19.06;70.30;101532.41;6157544;23;20009;-92
2022/09/04 07:03:35;;;;;;;14.82;11.38;;;;;;;19.09;70.90;101523.31;6158191;23;20005;-93
2022/09/04 07:06:23;;;;;;;14.35;11.88;;;;;;;19.33;70.60;101544.97;6182896;23;20353;-93
2022/09/04 07:08:55;;;;;;;14.75;11.20;;;;;;;19.52;70.45;101561.56;6134867;23;20356;-93
2022/09/04 07:11:32;;;;;;;15.70;11.35;;;;;;;19.60;70.64;101555.75;6156674;23;20040;-93
2022/09/04 07:14:15;;;;;;;12.13;10.15;;;;;;;19.72;68.89;101562.09;6182648;23;20005;-93
2022/09/04 07:17:05;;;;;;;15.60;10.68;;;;;;;19.94;69.34;101561.50;6157282;23;20008;-93
2022/09/04 07:19:47;;;;;;;11.55;10.18;;;;;;;19.99;68.96;101552.19;6157359;23;20013;-93
2022/09/04 07:22:38;;;;;;;14.40;10.55;;;;;;;20.18;67.79;101561.66;6157700;23;20009;-93
2022/09/04 07:25:26;;;;;;;14.88;10.90;;;;;;;20.41;67.97;101562.75;6157960;23;20012;-94
2022/09/04 07:28:17;;;;;;;14.23;10.73;;;;;;;20.45;67.70;101567.78;6157925;23;20001;-93
2022/09/04 07:30:55;;;;;;;13.25;10.52;;;;;;;20.51;67.22;101572.75;6156970;23;20015;-92
2022/09/04 07:33:39;;;;;;;13.75;11.23;;;;;;;20.55;67.37;101557.28;6156486;23;20092;-93
2022/09/04 07:36:13;;;;;;;17.65;10.88;;;;;;;20.78;67.54;101571.78;6156853;23;20012;-92
2022/09/04 07:38:56;;;;;;;13.48;10.70;;;;;;;20.93;66.12;101580.56;6183168;23;20033;-92
2022/09/04 07:41:33;;;;;;;13.98;10.38;;;;;;;20.94;65.89;101566.16;6155207;23;20433;-92
2022/09/04 07:44:28;;;;;;;13.50;11.10;;;;;;;21.20;65.55;101572.34;6155835;23;20041;-93
2022/09/04 07:47:01;;;;;;;12.70;10.57;;;;;;;21.54;64.77;101576.09;6111205;23;20009;-92
2022/09/04 07:49:46;;;;;;;13.07;10.43;;;;;;;21.92;63.69;101570.53;6154958;23;20055;-91
2022/09/04 07:52:54;;;;;;;12.43;9.77;;;;;;;22.61;62.29;101592.13;6154964;23;20009;-93
2022/09/04 07:55:56;;;;;;;13.43;9.45;;;;;;;22.92;61.14;101582.50;6125751;23;20016;-92
2022/09/04 07:58:37;;;;;;;14.20;10.13;;;;;;;23.42;59.18;101602.66;6120733;23;20009;-92
2022/09/04 08:01:36;;;;;;;13.03;10.20;;;;;;;23.73;58.01;101600.13;6153713;23;20020;-91
2022/09/04 08:04:14;;;;;;;10.65;9.38;;;;;;;23.82;57.58;101593.97;6155195;23;20332;-92
2022/09/04 08:06:49;;;;;;;13.20;10.23;;;;;;;23.76;57.45;101593.63;6154302;23;20401;-92
2022/09/04 08:09:41;;;;;;;10.23;9.18;;;;;;;24.03;57.30;101602.09;6155193;23;20016;-93
2022/09/04 08:12:28;;;;;;;13.55;10.13;;;;;;;24.58;55.71;101601.94;6154315;23;20005;-91
2022/09/04 08:14:58;;;;;;;13.55;9.50;;;;;;;25.14;53.13;101596.09;6153377;23;20314;-91
2022/09/04 08:17:41;;;;;;;11.77;9.98;;;;;;;25.27;53.42;101593.09;6152408;23;20763;-91
2022/09/04 08:20:25;;;;;;;13.95;10.27;;;;;;;25.29;53.41;101608.22;6152729;23;20009;-90
2022/09/04 08:23:28;;;;;;;12.77;9.68;;;;;;;25.65;52.48;101609.44;6151877;23;20758;-90
2022/09/04 08:26:12;;;;;;;14.48;10.52;;;;;;;25.77;51.92;101601.22;6177996;23;20044;-90
2022/09/04 08:29:16;;;;;;;14.20;9.88;;;;;;;25.88;51.97;101620.00;6151920;23;20001;-90
2022/09/04 08:31:50;;;;;;;12.18;9.57;;;;;;;26.04;50.85;101614.91;6176423;23;20417;-90
2022/09/04 08:34:30;;;;;;;17.10;11.10;;;;;;;25.64;50.56;101623.97;6178362;23;20450;-90
2022/09/04 08:37:10;;;;;;;10.10;9.07;;;;;;;25.77;51.01;101623.72;6150761;23;20424;-89
2022/09/04 08:40:11;;;;;;;13.05;9.32;;;;;;;26.45;50.06;101623.72;6152711;23;20099;-89
2022/09/04 08:43:03;;;;;;;11.40;9.67;;;;;;;27.14;48.29;101623.38;6151040;23;20437;-90
2022/09/04 08:46:06;;;;;;;9.32;8.25;;;;;;;27.84;47.54;101625.50;6178878;23;20005;-90
2022/09/04 08:48:41;;;;;;;12.15;8.52;;;;;;;27.90;47.68;101627.63;6150393;23;19997;-89
2022/09/04 08:51:28;;;;;;;13.50;9.02;;;;;;;28.21;46.17;101634.38;6151491;23;20044;-89
2022/09/04 08:54:08;;;;;;;11.43;8.43;;;;;;;28.72;45.00;101632.72;6151492;23;20093;-89
2022/09/04 08:56:48;;;;;;;10.43;9.23;;;;;;;28.75;43.73;101636.97;6150398;23;20441;-90
2022/09/04 08:59:47;;;;;;;11.35;8.40;;;;;;;28.76;44.83;101640.53;6152854;23;20084;-90
2022/09/04 09:02:34;;;;;;;12.48;8.25;;;;;;;28.74;43.65;101638.00;6150976;23;20060;-91
2022/09/04 09:05:21;;;;;;;7.82;6.50;;;;;;;29.36;43.28;101629.63;6179635;23;20433;-91
2022/09/04 09:08:02;;;;;;;9.60;7.38;;;;;;;29.11;41.89;101640.44;6152413;23;20048;-92
2022/09/04 09:10:34;;;;;;;9.95;6.97;;;;;;;29.74;41.70;101639.13;6151790;23;20028;-91
2022/09/04 09:13:06;;;;;;;7.78;6.18;;;;;;;30.21;40.83;101638.50;6152448;23;20005;-89
2022/09/04 09:15:38;;;;;;;7.25;5.38;;;;;;;30.82;39.58;101631.59;6180782;23;20024;-89
2022/09/04 09:18:34;;;;;;;10.02;5.80;;;;;;;31.11;37.86;101631.03;6157215;23;20440;-90
2022/09/04 09:21:05;;;;;;;6.75;4.63;;;;;;;30.97;37.91;101634.50;6154886;23;20647;-90
2022/09/04 09:23:43;;;;;;;9.52;4.88;;;;;;;30.65;37.96;101640.84;6180908;23;20009;-90
2022/09/04 09:26:28;;;;;;;6.90;5.05;;;;;;;30.74;38.60;101629.78;6179850;23;20333;-91
2022/09/04 09:29:18;;;;;;;6.75;5.28;;;;;;;31.05;38.18;101636.31;6153462;23;20005;-91
2022/09/04 09:32:08;;;;;;;6.03;4.80;;;;;;;31.68;37.34;101627.16;6152076;23;20342;-90
2022/09/04 09:35:07;;;;;;;6.18;4.70;;;;;;;32.34;35.71;101627.50;6151247;23;20017;-90
2022/09/04 09:38:27;;;;;;;5.40;3.83;;;;;;;32.76;35.29;101633.25;6178054;23;20005;-91
2022/09/04 09:41:29;;;;;;;6.90;4.50;;;;;;;32.69;34.90;101626.84;6091840;23;20091;-91
2022/09/04 09:44:27;;;;;;;5.18;3.70;;;;;;;33.40;33.95;101629.06;6154388;23;20433;-91
2022/09/04 09:47:21;;;;;;;3.88;3.30;;;;;;;33.29;33.09;101635.03;6153462;23;20012;-91
2022/09/04 09:50:19;;;;;;;5.05;3.40;;;;;;;33.30;33.12;101629.38;6179815;23;20118;-90
2022/09/04 09:52:57;;;;;;;5.03;2.92;;;;;;;33.87;32.14;101630.47;6143320;23;20469;-89
2022/09/04 09:55:52;;;;;;;3.63;2.90;;;;;;;33.64;32.37;101620.50;6181872;23;20013;-91
2022/09/04 09:58:30;;;;;;;4.72;2.63;;;;;;;33.86;31.16;101629.63;6153082;23;20005;-90
2022/09/04 10:00:58;;;;;;;4.60;3.17;;;;;;;33.37;32.01;101629.44;6179031;23;20459;-91
2022/09/04 10:04:10;;;;;;;3.78;2.90;;;;;;;33.62;32.04;101627.22;6152576;23;20008;-90
2022/09/04 10:06:58;;;;;;;5.15;2.70;;;;;;;34.65;31.38;101642.34;6152551;23;20009;-89
2022/09/04 10:09:33;;;;;;;3.40;2.78;;;;;;;33.08;31.57;101641.31;6154639;23;20389;-91
2022/09/04 10:12:43;;;;;;;5.30;3.22;;;;;;;32.37;33.56;101641.72;6182230;23;20001;-91
2022/09/04 10:15:42;;;;;;;4.00;3.05;;;;;;;33.33;32.31;101634.47;6065861;23;20070;-91
2022/09/04 10:18:33;;;;;;;5.30;3.65;;;;;;;33.31;31.95;101631.06;6066431;23;20057;-90
2022/09/04 10:21:28;;;;;;;3.75;3.17;;;;;;;32.80;33.72;101639.22;6057604;23;20013;-92
2022/09/04 10:23:54;;;;;;;5.60;3.47;;;;;;;33.40;32.53;101638.16;6068511;23;20022;-91
2022/09/04 10:26:53;;;;;;;5.55;3.78;;;;;;;33.84;32.20;101631.69;6157911;23;20063;-91
2022/09/04 10:29:40;;;;;;;3.38;2.85;;;;;;;34.14;31.03;101632.44;6156531;23;20397;-91
2022/09/04 10:32:37;;;;;;;2.50;2.30;;;;;;;33.87;29.49;101639.53;6154039;23;20016;-92
2022/09/04 10:35:27;;;;;;;2.60;2.15;;;;;;;32.64;32.29;101650.31;6154227;23;20378;-92
2022/09/04 10:38:20;;;;;;;3.92;1.90;;;;;;;33.46;31.38;101642.88;6181034;23;20032;-90
2022/09/04 10:41:23;;;;;;;1.92;1.80;;;;;;;34.07;30.32;101641.66;6155254;23;20059;-91
2022/09/04 10:44:16;;;;;;;1.42;1.33;;;;;;;33.86;29.92;101637.00;6181979;23;20091;-90
2022/09/04 10:46:50;;;;;;;2.97;1.90;;;;;;;33.70;29.25;101627.09;6180798;23;20429;-91
2022/09/04 10:49:29;;;;;;;3.08;1.58;;;;;;;33.60;29.12;101637.56;6155507;23;20032;-90
2022/09/04 10:52:27;;;;;;;3.33;1.73;;;;;;;33.54;29.02;101644.66;6143623;23;20450;-90
2022/09/04 10:55:18;;;;;;;2.45;1.70;;;;;;;32.43;30.17;101637.38;6126192;23;20016;-91
2022/09/04 10:58:15;;;;;;;3.10;1.27;;;;;;;32.56;30.37;101643.06;6126313;23;20025;-90
2022/09/04 11:00:49;;;;;;;4.47;1.65;;;;;;;33.46;29.05;101639.28;6123972;23;20008;-92
2022/09/04 11:03:21;;;;;;;2.28;1.55;;;;;;;33.89;27.85;101637.44;6150977;23;20013;-91
2022/09/04 11:06:22;;;;;;;;;;;;;;;34.19;27.46;101634.59;6150115;23;20489;-93
2022/09/04 11:09:05;;;;;;;2.10;1.90;;;;;;;33.84;28.28;101631.69;6104269;23;20333;-91
2022/09/04 11:12:09;;;;;;;1.70;1.50;;;;;;;33.83;27.75;101621.75;6150677;23;20009;-92
2022/09/04 11:15:12;;;;;;;4.63;2.13;;;;;;;33.33;29.27;101628.13;6045146;23;20487;-91
2022/09/04 11:17:49;;;;;;;2.10;1.90;;;;;;;33.45;28.05;101634.84;6066465;23;20345;-92
2022/09/04 11:20:34;;;;;;;1.98;1.88;;;;;;;32.91;28.10;101640.66;6150363;23;20085;-92
2022/09/04 11:23:22;;;;;;;2.45;2.10;;;;;;;32.39;29.54;101644.25;6149946;23;20480;-92
2022/09/04 11:26:05;;;;;;;3.20;2.08;;;;;;;31.96;29.85;101639.28;6149739;23;20111;-93
2022/09/04 11:28:59;;;;;;;3.25;2.33;;;;;;;31.96;30.53;101636.53;6124269;23;20010;-92
2022/09/04 11:31:51;;;;;;;2.85;2.03;;;;;;;31.96;30.33;101641.16;6123942;23;20009;-92
2022/09/04 11:34:49;;;;;;;2.13;1.90;;;;;;;32.25;29.71;101634.94;6150856;23;20005;-93
2022/09/04 11:37:46;;;;;;;4.93;2.00;;;;;;;31.91;30.13;101636.25;6150138;23;20002;-92
2022/09/04 11:40:36;;;;;;;2.40;2.20;;;;;;;31.81;29.44;101635.59;6125232;23;20056;-93
2022/09/04 11:43:30;;;;;;;3.08;2.40;;;;;;;31.89;29.89;101630.09;6151253;23;20009;-92
2022/09/04 11:46:34;;;;;;;3.17;2.15;;;;;;;31.67;30.38;101637.25;6149213;23;20005;-93
2022/09/04 11:49:37;;;;;;;3.65;2.30;;;;;;;31.70;29.50;101630.53;6067104;23;20002;-94
2022/09/04 11:52:06;;;;;;;3.35;2.05;;;;;;;31.42;30.66;101649.34;6125926;23;20342;-93
2022/09/04 11:55:04;;;;;;;2.67;2.30;;;;;;;31.32;29.92;101626.84;6153167;23;20013;-94
2022/09/04 11:58:02;;;;;;;2.40;2.20;;;;;;;30.96;31.21;101619.97;6088220;23;20438;-93
2022/09/04 12:00:57;;;;;;;3.22;2.70;;;;;;;31.44;29.87;101639.09;6125906;23;20310;-93
2022/09/04 12:03:57;;;;;;;2.58;2.30;;;;;;;31.98;29.33;101637.19;6127473;23;20020;-94
2022/09/04 12:06:36;;;;;;;4.35;2.55;;;;;;;32.63;27.85;101637.69;6123143;23;20068;-93
2022/09/04 12:09:26;;;;;;;3.80;2.60;;;;;;;32.86;27.59;101635.69;6123768;23;20060;-92
2022/09/04 12:11:55;;;;;;;6.15;2.75;;;;;;;32.32;27.13;101643.28;6123031;23;20009;-93
2022/09/04 12:14:20;;;;;;;3.85;2.40;;;;;;;32.08;27.38;101642.41;6123613;23;20023;-93
2022/09/04 12:17:35;;;;;;;6.55;2.67;;;;;;;32.31;27.59;101649.75;6122319;23;20461;-92
2022/09/04 12:20:22;;;;;;;3.28;2.50;;;;;;;31.97;26.76;101642.88;6036822;23;20013;-92
2022/09/04 12:23:09;;;;;;;5.35;2.63;;;;;;;32.50;26.70;101657.47;6122057;23;20405;-92
2022/09/04 12:26:12;;;;;;;2.78;2.42;;;;;;;32.82;27.29;101658.19;6123003;23;20356;-94
2022/09/04 12:28:44;;;;;;;2.60;2.40;;;;;;;32.58;27.12;101651.94;6122794;23;20089;-93
2022/09/04 12:31:28;;;;;;;5.22;2.72;;;;;;;32.70;27.13;101657.81;6121412;23;20017;-94
2022/09/04 12:34:28;;;;;;;3.42;2.25;;;;;;;32.84;27.18;101651.50;6121115;23;20349;-93
2022/09/04 12:37:04;;;;;;;2.20;2.00;;;;;;;32.90;27.17;101641.66;6120707;23;20432;-93
2022/09/04 12:39:43;;;;;;;3.38;2.28;;;;;;;32.86;26.22;101648.56;6121274;23;20465;-92
2022/09/04 12:42:23;;;;;;;2.60;1.95;;;;;;;32.04;27.15;101651.19;6147698;23;20001;-93